createdAt,value
2023-05-03T00:00:40.861Z,101790.41
2023-05-03T00:03:43.393Z,101785.13
2023-05-03T00:06:45.162Z,101793.28
2023-05-03T00:09:49.674Z,101793.28
2023-05-03T00:12:51.137Z,101793.41
2023-05-03T00:15:52.641Z,101793.41
2023-05-03T00:18:54.262Z,101793.53
2023-05-03T00:21:55.716Z,101789.84
2023-05-03T00:24:57.264Z,101787.25
2023-05-03T00:27:58.708Z,101781.97
2023-05-03T00:31:10.342Z,101785.38
2023-05-03T00:34:11.911Z,101790.09
2023-05-03T00:37:13.386Z,101792.81
2023-05-03T00:40:18.495Z,101792.94
2023-05-03T00:43:19.980Z,101793.06
2023-05-03T00:46:21.701Z,101788.63
2023-05-03T00:49:26.666Z,101792.09
2023-05-03T00:52:29.355Z,101779.47
2023-05-03T00:55:32.002Z,101790.47
2023-05-03T00:58:36.142Z,101785.06
2023-05-03T01:01:37.703Z,101783.19
2023-05-03T01:04:42.350Z,101779.75
2023-05-03T01:07:53.690Z,101782.34
2023-05-03T01:11:02.884Z,101784.44
2023-05-03T01:14:16.501Z,101785.16
2023-05-03T01:17:25.404Z,101789.88
2023-05-03T01:20:30.769Z,101789.88
2023-05-03T01:23:51.733Z,101796.19
2023-05-03T01:26:53.198Z,101796.41
2023-05-03T01:29:54.647Z,101796.56
2023-05-03T01:33:10.983Z,101790.28
2023-05-03T01:36:22.635Z,101787.56
2023-05-03T01:39:49.896Z,101789.28
2023-05-03T01:42:53.430Z,101786.69
2023-05-03T01:45:55.072Z,101791.25
2023-05-03T01:48:56.550Z,101790.50
2023-05-03T01:51:58.014Z,101791.50
2023-05-03T01:55:00.119Z,101786.94
2023-05-03T01:58:01.606Z,101790.50
2023-05-03T02:01:05.574Z,101794.22
2023-05-03T02:04:07.245Z,101792.50
2023-05-03T02:07:09.290Z,101794.34
2023-05-03T02:10:14.912Z,101797.06
2023-05-03T02:13:16.723Z,101804.50
2023-05-03T02:16:18.815Z,101805.34
2023-05-03T02:19:20.486Z,101806.31
2023-05-03T02:22:22.003Z,101806.31
2023-05-03T02:25:23.853Z,101812.63
2023-05-03T02:28:26.280Z,101804.59
2023-05-03T02:31:28.024Z,101818.06
2023-05-03T02:34:32.781Z,101806.47
2023-05-03T02:37:34.388Z,101816.47
2023-05-03T02:40:40.678Z,101815.59
2023-05-03T02:43:42.170Z,101814.00
2023-05-03T02:46:44.389Z,101826.59
2023-05-03T02:49:45.999Z,101823.03
2023-05-03T02:52:48.099Z,101829.41
2023-05-03T02:55:50.102Z,101830.28
2023-05-03T02:58:51.941Z,101826.69
2023-05-03T03:01:54.714Z,101824.84
2023-05-03T03:04:56.199Z,101827.56
2023-05-03T03:07:58.592Z,101826.59
2023-05-03T03:11:01.690Z,101826.31
2023-05-03T03:14:03.208Z,101824.47
2023-05-03T03:17:08.910Z,101824.09
2023-05-03T03:20:13.427Z,101831.13
2023-05-03T03:23:18.687Z,101831.72
2023-05-03T03:26:20.245Z,101829.75
2023-05-03T03:29:21.861Z,101827.66
2023-05-03T03:32:24.232Z,101820.22
2023-05-03T03:35:26.844Z,101823.53
2023-05-03T03:38:28.499Z,101822.44
2023-05-03T03:41:36.206Z,101830.31
2023-05-03T03:44:38.314Z,101823.00
2023-05-03T03:47:41.148Z,101828.34
2023-05-03T03:50:42.934Z,101824.50
2023-05-03T03:53:46.452Z,101821.78
2023-05-03T03:56:48.238Z,101830.78
2023-05-03T03:59:50.367Z,101830.66
2023-05-03T04:02:51.955Z,101821.50
2023-05-03T04:05:54.933Z,101824.34
2023-05-03T04:08:57.024Z,101823.38
2023-05-03T04:11:59.683Z,101814.38
2023-05-03T04:15:01.277Z,101815.22
2023-05-03T04:18:04.069Z,101815.22
2023-05-03T04:21:05.905Z,101818.06
2023-05-03T04:24:07.869Z,101817.19
2023-05-03T04:27:09.831Z,101819.06
2023-05-03T04:30:15.543Z,101823.63
2023-05-03T04:33:21.535Z,101827.31
2023-05-03T04:36:25.859Z,101823.75
2023-05-03T04:39:29.019Z,101826.59
2023-05-03T04:42:30.847Z,101821.16
2023-05-03T04:45:32.959Z,101830.31
2023-05-03T04:48:36.237Z,101830.31
2023-05-03T04:51:37.752Z,101837.72
2023-05-03T04:54:39.971Z,101841.44
2023-05-03T04:57:42.515Z,101842.28
2023-05-03T05:00:46.428Z,101836.00
2023-05-03T05:03:54.532Z,101835.00
2023-05-03T05:07:00.967Z,101844.00
2023-05-03T05:10:06.478Z,101840.16
2023-05-03T05:13:08.188Z,101839.19
2023-05-03T05:16:10.150Z,101842.75
2023-05-03T05:19:14.911Z,101848.94
2023-05-03T05:22:16.578Z,101843.34
2023-05-03T05:25:23.398Z,101845.09
2023-05-03T05:28:24.902Z,101843.25
2023-05-03T05:31:26.454Z,101846.81
2023-05-03T05:34:30.919Z,101853.25
2023-05-03T05:37:35.697Z,101856.72
2023-05-03T05:40:39.264Z,101863.84
2023-05-03T05:43:40.820Z,101865.56
2023-05-03T05:46:42.772Z,101871.00
2023-05-03T05:49:44.496Z,101871.88
2023-05-03T05:52:47.964Z,101877.31
2023-05-03T05:55:49.564Z,101872.84
2023-05-03T05:58:52.398Z,101874.59
2023-05-03T06:01:54.664Z,101868.28
2023-05-03T06:04:56.320Z,101870.13
2023-05-03T06:07:57.914Z,101867.56
2023-05-03T06:10:59.506Z,101874.84
2023-05-03T06:14:03.919Z,101877.69
2023-05-03T06:17:06.295Z,101882.28
2023-05-03T06:20:11.853Z,101889.53
2023-05-03T06:23:15.156Z,101889.69
2023-05-03T06:26:17.487Z,101893.63
2023-05-03T06:29:19.930Z,101899.09
2023-05-03T06:32:21.810Z,101908.28
2023-05-03T06:35:23.713Z,101914.44
2023-05-03T06:38:25.332Z,101914.75
2023-05-03T06:41:26.766Z,101911.63
2023-05-03T06:44:28.324Z,101916.91
2023-05-03T06:47:29.791Z,101918.25
2023-05-03T06:50:31.960Z,101919.59
2023-05-03T06:53:33.421Z,101912.66
2023-05-03T06:56:36.111Z,101908.00
2023-05-03T06:59:37.591Z,101908.63
2023-05-03T07:02:39.132Z,101902.22
2023-05-03T07:05:40.670Z,101904.81
2023-05-03T07:08:42.514Z,101913.06
2023-05-03T07:11:49.368Z,101911.97
2023-05-03T07:14:50.826Z,101913.47
2023-05-03T07:17:52.336Z,101915.66
2023-05-03T07:20:53.912Z,101915.22
2023-05-03T07:23:55.454Z,101911.28
2023-05-03T07:26:58.003Z,101913.31
2023-05-03T07:30:00.284Z,101911.03
2023-05-03T07:33:01.985Z,101903.16
2023-05-03T07:36:05.178Z,101902.06
2023-05-03T07:39:07.384Z,101911.34
2023-05-03T07:42:08.908Z,101904.25
2023-05-03T07:45:10.657Z,101905.19
2023-05-03T07:48:12.232Z,101899.09
2023-05-03T07:51:13.767Z,101893.81
2023-05-03T07:54:15.598Z,101904.94
2023-05-03T07:57:17.366Z,101899.03
2023-05-03T08:00:19.068Z,101889.44
2023-05-03T08:03:21.443Z,101887.38
2023-05-03T08:06:23.275Z,101885.16
2023-05-03T08:09:24.997Z,101886.63
2023-05-03T08:12:26.836Z,101898.84
2023-05-03T08:15:28.416Z,101886.88
2023-05-03T08:18:29.939Z,101895.66
2023-05-03T08:21:33.213Z,101890.84
2023-05-03T08:24:35.059Z,101891.59
2023-05-03T08:27:37.444Z,101895.91
2023-05-03T08:30:39.026Z,101899.47
2023-05-03T08:33:40.538Z,101890.25
2023-05-03T08:36:42.023Z,101891.97
2023-05-03T08:39:43.532Z,101898.13
2023-05-03T08:42:46.121Z,101891.59
2023-05-03T08:45:47.789Z,101889.78
2023-05-03T08:48:52.504Z,101896.91
2023-05-03T08:51:55.585Z,101895.81
2023-05-03T08:54:57.289Z,101892.97
2023-05-03T08:58:00.490Z,101883.84
2023-05-03T09:01:09.757Z,101892.72
2023-05-03T09:04:11.916Z,101875.59
2023-05-03T09:07:15.852Z,101877.31
2023-05-03T09:10:24.485Z,101879.91
2023-05-03T09:13:32.296Z,101876.19
2023-05-03T09:16:33.922Z,101871.78
2023-05-03T09:19:50.499Z,101878.78
2023-05-03T09:22:52.590Z,101868.91
2023-05-03T09:25:54.576Z,101868.91
2023-05-03T09:28:58.063Z,101868.81
2023-05-03T09:32:01.387Z,101871.38
2023-05-03T09:35:10.103Z,101872.38
2023-05-03T09:38:27.035Z,101879.50
2023-05-03T09:41:29.384Z,101876.94
2023-05-03T09:44:41.850Z,101876.78
2023-05-03T09:47:52.308Z,101876.78
2023-05-03T09:50:54.057Z,101874.09
2023-05-03T09:53:56.624Z,101868.66
2023-05-03T09:56:59.099Z,101863.22
2023-05-03T10:00:00.722Z,101869.56
2023-05-03T10:03:07.055Z,101863.97
2023-05-03T10:06:16.332Z,101863.88
2023-05-03T10:09:20.529Z,101864.97
2023-05-03T10:12:22.522Z,101864.13
2023-05-03T10:15:27.000Z,101867.56
2023-05-03T10:18:32.229Z,101863.88
2023-05-03T10:21:46.973Z,101858.44
2023-05-03T10:25:01.414Z,101856.59
2023-05-03T10:28:07.283Z,101849.56
2023-05-03T10:31:45.375Z,101854.72
2023-05-03T10:34:47.022Z,101838.59
2023-05-03T10:37:50.472Z,101842.16
2023-05-03T10:40:53.166Z,101848.44
2023-05-03T10:43:54.694Z,101847.59
2023-05-03T10:46:57.218Z,101844.03
2023-05-03T10:50:17.228Z,101850.06
2023-05-03T10:53:31.116Z,101842.03
2023-05-03T10:56:32.611Z,101843.88
2023-05-03T10:59:47.564Z,101841.06
2023-05-03T11:03:09.899Z,101841.91
2023-05-03T11:06:27.742Z,101835.63
2023-05-03T11:09:33.809Z,101829.19
2023-05-03T11:12:35.305Z,101820.31
2023-05-03T11:15:37.000Z,101816.75
2023-05-03T11:18:38.987Z,101812.91
2023-05-03T11:21:40.492Z,101814.88
2023-05-03T11:24:41.953Z,101809.47
2023-05-03T11:27:44.453Z,101803.94
2023-05-03T11:30:46.950Z,101814.78
2023-05-03T11:33:49.788Z,101805.78
2023-05-03T11:36:51.329Z,101812.06
2023-05-03T11:39:52.772Z,101798.50
2023-05-03T11:42:56.196Z,101794.78
2023-05-03T11:45:59.271Z,101794.78
2023-05-03T11:49:02.149Z,101793.81
2023-05-03T11:52:03.964Z,101801.94
2023-05-03T11:55:07.900Z,101794.66
2023-05-03T11:58:32.046Z,101790.09
2023-05-03T12:01:33.554Z,101789.25
2023-05-03T12:04:37.101Z,101784.66
2023-05-03T12:07:39.432Z,101782.09
2023-05-03T12:10:42.918Z,101790.25
2023-05-03T12:13:44.857Z,101780.25
2023-05-03T12:16:51.827Z,101762.97
2023-05-03T12:20:50.510Z,101767.44
2023-05-03T12:23:35.792Z,101762.97
2023-05-03T12:26:38.075Z,101761.09
2023-05-03T12:29:41.679Z,101755.59
2023-05-03T12:32:44.496Z,101752.78
2023-05-03T12:35:48.117Z,101751.78
2023-05-03T12:38:55.840Z,101745.34
2023-05-03T12:45:04.949Z,101755.22
2023-05-03T12:48:06.825Z,101755.34
2023-05-03T12:51:19.467Z,101740.81
2023-05-03T12:54:26.747Z,101751.78
2023-05-03T12:57:30.669Z,101737.19
2023-05-03T13:00:36.372Z,101747.09
2023-05-03T13:03:43.673Z,101746.94
2023-05-03T13:06:46.754Z,101738.69
2023-05-03T13:12:54.058Z,101725.84
2023-05-03T13:15:55.725Z,101724.00
2023-05-03T13:18:57.236Z,101714.84
2023-05-03T13:21:58.695Z,101721.16
2023-05-03T13:25:00.188Z,101715.59
2023-05-03T13:28:01.996Z,101711.00
2023-05-03T13:31:03.558Z,101705.47
2023-05-03T13:34:06.115Z,101698.19
2023-05-03T13:37:07.679Z,101699.94
2023-05-03T13:40:10.045Z,101702.50
2023-05-03T13:43:11.544Z,101700.63
2023-05-03T13:46:13.106Z,101691.63
2023-05-03T13:49:14.688Z,101687.94
2023-05-03T13:52:16.260Z,101688.66
2023-05-03T13:55:17.880Z,101685.81
2023-05-03T13:58:19.446Z,101685.69
2023-05-03T14:01:21.018Z,101684.81
2023-05-03T14:04:24.397Z,101680.28
2023-05-03T14:07:25.921Z,101679.25
2023-05-03T14:10:27.478Z,101675.53
2023-05-03T14:13:32.982Z,101672.72
2023-05-03T14:16:41.449Z,101670.00
2023-05-03T14:19:43.670Z,101670.00
2023-05-03T14:22:45.751Z,101669.72
2023-05-03T14:25:47.257Z,101665.88
2023-05-03T14:28:48.807Z,101659.50
2023-05-03T14:31:50.571Z,101660.34
2023-05-03T14:34:52.185Z,101662.06
2023-05-03T14:37:53.842Z,101662.91
2023-05-03T14:40:55.430Z,101654.53
2023-05-03T14:43:56.979Z,101652.50
2023-05-03T14:46:59.044Z,101644.13
2023-05-03T14:50:01.368Z,101638.44
2023-05-03T14:53:03.451Z,101639.16
2023-05-03T14:56:05.012Z,101639.75
2023-05-03T14:59:06.959Z,101624.91
2023-05-03T15:02:10.136Z,101625.50
2023-05-03T15:05:12.860Z,101624.34
2023-05-03T15:08:16.016Z,101618.53
2023-05-03T15:11:17.707Z,101622.81
2023-05-03T15:14:19.325Z,101611.69
2023-05-03T15:17:20.992Z,101617.84
2023-05-03T15:20:22.844Z,101619.16
2023-05-03T15:23:24.624Z,101617.75
2023-05-03T15:26:26.425Z,101614.75
2023-05-03T15:29:28.331Z,101615.34
2023-05-03T15:32:30.062Z,101614.06
2023-05-03T15:35:31.549Z,101606.63
2023-05-03T15:38:32.997Z,101603.81
2023-05-03T15:41:34.472Z,101601.97
2023-05-03T15:44:37.134Z,101601.84
2023-05-03T15:47:38.732Z,101599.13
2023-05-03T15:50:40.388Z,101595.25
2023-05-03T15:53:41.948Z,101595.25
2023-05-03T15:56:47.166Z,101595.97
2023-05-03T15:59:49.381Z,101594.13
2023-05-03T16:02:51.022Z,101588.69
2023-05-03T16:05:53.307Z,101599.41
2023-05-03T16:08:54.794Z,101588.53
2023-05-03T16:11:57.669Z,101594.56
2023-05-03T16:14:59.188Z,101585.53
2023-05-03T16:18:01.319Z,101579.13
2023-05-03T16:21:02.981Z,101582.69
2023-05-03T16:24:04.864Z,101568.09
2023-05-03T16:27:06.400Z,101582.56
2023-05-03T16:30:09.078Z,101578.84
2023-05-03T16:33:10.702Z,101576.13
2023-05-03T16:36:12.176Z,101573.41
2023-05-03T16:39:14.578Z,101578.72
2023-05-03T16:42:16.238Z,101580.41
2023-05-03T16:45:19.552Z,101576.00
2023-05-03T16:48:21.982Z,101566.94
2023-05-03T16:51:23.554Z,101564.38
2023-05-03T16:54:25.150Z,101566.09
2023-05-03T16:57:26.874Z,101572.38
2023-05-03T17:00:28.832Z,101570.38
2023-05-03T17:03:30.726Z,101571.25
2023-05-03T17:06:32.562Z,101572.13
2023-05-03T17:09:34.161Z,101559.41
2023-05-03T17:12:35.851Z,101561.09
2023-05-03T17:15:37.454Z,101561.09
2023-05-03T17:18:40.420Z,101561.94
2023-05-03T17:21:42.008Z,101559.41
2023-05-03T17:24:43.604Z,101562.13
2023-05-03T17:27:45.228Z,101569.41
2023-05-03T17:30:46.715Z,101562.25
2023-05-03T17:33:48.245Z,101563.97
2023-05-03T17:36:49.975Z,101558.38
2023-05-03T17:39:51.604Z,101557.53
2023-05-03T17:42:53.174Z,101558.53
2023-05-03T17:45:54.698Z,101554.81
2023-05-03T17:48:57.703Z,101552.22
2023-05-03T17:51:59.597Z,101546.94
2023-05-03T17:55:02.501Z,101554.25
2023-05-03T17:58:05.998Z,101553.22
2023-05-03T18:01:10.406Z,101548.53
2023-05-03T18:04:12.043Z,101553.66
2023-05-03T18:07:14.755Z,101551.69
2023-05-03T18:10:17.478Z,101549.81
2023-05-03T18:13:19.188Z,101554.22
2023-05-03T18:16:20.756Z,101549.53
2023-05-03T18:19:22.479Z,101546.50
2023-05-03T18:22:27.368Z,101551.81
2023-05-03T18:25:29.317Z,101553.69
2023-05-03T18:28:30.842Z,101558.28
2023-05-03T18:31:32.389Z,101556.53
2023-05-03T18:34:37.253Z,101556.69
2023-05-03T18:37:38.690Z,101558.53
2023-05-03T18:40:40.309Z,101555.81
2023-05-03T18:43:43.310Z,101554.09
2023-05-03T18:46:44.807Z,101554.09
2023-05-03T18:49:48.440Z,101559.53
2023-05-03T18:52:50.764Z,101560.56
2023-05-03T18:55:52.372Z,101559.66
2023-05-03T18:58:53.822Z,101561.53
2023-05-03T19:01:55.353Z,101566.97
2023-05-03T19:04:56.951Z,101564.41
2023-05-03T19:07:58.417Z,101572.56
2023-05-03T19:11:14.269Z,101574.28
2023-05-03T19:14:16.201Z,101573.56
2023-05-03T19:17:17.725Z,101560.97
2023-05-03T19:20:19.308Z,101564.66
2023-05-03T19:23:20.842Z,101573.72
2023-05-03T19:26:22.293Z,101563.81
2023-05-03T19:29:23.862Z,101557.53
2023-05-03T19:32:25.395Z,101555.66
2023-05-03T19:35:26.865Z,101553.09
2023-05-03T19:38:28.309Z,101562.13
2023-05-03T19:41:30.080Z,101566.69
2023-05-03T19:44:31.864Z,101566.81
2023-05-03T19:47:33.587Z,101574.13
2023-05-03T19:50:35.876Z,101572.38
2023-05-03T19:53:37.729Z,101564.38
2023-05-03T19:56:39.181Z,101572.53
2023-05-03T19:59:40.629Z,101568.09
2023-05-03T20:02:42.159Z,101562.81
2023-05-03T20:05:43.928Z,101565.53
2023-05-03T20:08:45.448Z,101567.41
2023-05-03T20:11:48.492Z,101557.50
2023-05-03T20:14:49.953Z,101556.66
2023-05-03T20:17:53.344Z,101559.38
2023-05-03T20:20:54.817Z,101559.66
2023-05-03T20:23:56.718Z,101558.78
2023-05-03T20:26:58.210Z,101552.63
2023-05-03T20:29:59.651Z,101550.78
2023-05-03T20:33:01.256Z,101560.78
2023-05-03T20:36:02.905Z,101556.22
2023-05-03T20:39:05.039Z,101561.78
2023-05-03T20:42:06.506Z,101556.50
2023-05-03T20:45:08.422Z,101564.66
2023-05-03T20:48:09.967Z,101557.47
2023-05-03T20:51:11.510Z,101562.06
2023-05-03T20:54:13.233Z,101553.91
2023-05-03T20:57:17.843Z,101553.91
2023-05-03T21:00:20.935Z,101555.84
2023-05-03T21:03:28.080Z,101559.50
2023-05-03T21:06:29.647Z,101550.59
2023-05-03T21:09:31.461Z,101556.88
2023-05-03T21:12:33.525Z,101554.28
2023-05-03T21:15:37.166Z,101549.72
2023-05-03T21:18:38.657Z,101555.41
2023-05-03T21:21:41.212Z,101559.00
2023-05-03T21:24:42.816Z,101557.28
2023-05-03T21:27:44.252Z,101561.13
2023-05-03T21:30:48.282Z,101560.16
2023-05-03T21:33:49.767Z,101565.72
2023-05-03T21:36:51.303Z,101564.84
2023-05-03T21:40:01.033Z,101561.41
2023-05-03T21:43:04.614Z,101559.56
2023-05-03T21:46:09.701Z,101556.09
2023-05-03T21:49:11.856Z,101549.81
2023-05-03T21:52:13.706Z,101549.81
2023-05-03T21:55:15.227Z,101544.53
2023-05-03T21:58:16.689Z,101545.53
2023-05-03T22:01:19.975Z,101543.66
2023-05-03T22:04:21.661Z,101538.38
2023-05-03T22:07:23.165Z,101532.94
2023-05-03T22:10:24.819Z,101541.94
2023-05-03T22:13:26.302Z,101535.66
2023-05-03T22:16:27.857Z,101535.66
2023-05-03T22:19:29.655Z,101527.50
2023-05-03T22:22:31.388Z,101521.22
2023-05-03T22:25:32.901Z,101532.09
2023-05-03T22:28:34.394Z,101524.91
2023-05-03T22:31:36.204Z,101520.34
2023-05-03T22:34:37.692Z,101515.78
2023-05-03T22:37:39.153Z,101521.34
2023-05-03T22:40:40.911Z,101523.22
2023-05-03T22:43:42.461Z,101516.03
2023-05-03T22:46:43.980Z,101514.34
2023-05-03T22:49:45.413Z,101515.34
2023-05-03T22:52:47.099Z,101518.19
2023-05-03T22:55:58.595Z,101510.78
2023-05-03T22:59:00.027Z,101510.31
2023-05-03T23:02:01.556Z,101512.19
2023-05-03T23:05:03.120Z,101513.16
2023-05-03T23:08:04.647Z,101506.03
2023-05-03T23:11:06.137Z,101508.75
2023-05-03T23:14:07.614Z,101510.72
2023-05-03T23:17:12.907Z,101507.88
2023-05-03T23:20:14.868Z,101505.44
2023-05-03T23:23:16.535Z,101501.00
2023-05-03T23:26:18.026Z,101504.56
2023-05-03T23:29:19.903Z,101500.00
2023-05-03T23:32:22.055Z,101499.13
2023-05-03T23:35:24.233Z,101491.84
2023-05-03T23:38:25.772Z,101485.44
2023-05-03T23:41:27.435Z,101495.44
2023-05-03T23:44:38.693Z,101494.44
2023-05-03T23:47:48.217Z,101492.72
2023-05-03T23:50:49.728Z,101491.84
2023-05-03T23:53:51.402Z,101493.59
2023-05-03T23:56:52.983Z,101495.44
2023-05-03T23:59:54.547Z,101485.44
